sensor_id;sensor_type;location;lat;lon;timestamp;temperature;humidity
20568;DHT22;10442;49.932;11.592;2022-10-29T00:01:01;16.90;75.40
20568;DHT22;10442;49.932;11.592;2022-10-29T00:03:28;16.80;75.50
20568;DHT22;10442;49.932;11.592;2022-10-29T00:06:04;16.80;75.50
20568;DHT22;10442;49.932;11.592;2022-10-29T00:08:34;16.80;75.70
20568;DHT22;10442;49.932;11.592;2022-10-29T00:11:17;16.70;75.60
20568;DHT22;10442;49.932;11.592;2022-10-29T00:13:46;16.70;75.90
20568;DHT22;10442;49.932;11.592;2022-10-29T00:16:17;16.60;75.60
20568;DHT22;10442;49.932;11.592;2022-10-29T00:18:46;16.60;75.60
20568;DHT22;10442;49.932;11.592;2022-10-29T00:21:19;16.50;75.70
20568;DHT22;10442;49.932;11.592;2022-10-29T00:23:48;16.50;75.80
20568;DHT22;10442;49.932;11.592;2022-10-29T00:26:17;16.50;75.80
20568;DHT22;10442;49.932;11.592;2022-10-29T00:28:45;16.40;75.80
20568;DHT22;10442;49.932;11.592;2022-10-29T00:31:15;16.40;76.00
20568;DHT22;10442;49.932;11.592;2022-10-29T00:33:43;16.30;76.30
20568;DHT22;10442;49.932;11.592;2022-10-29T00:36:16;16.30;76.30
20568;DHT22;10442;49.932;11.592;2022-10-29T00:38:44;16.30;76.40
20568;DHT22;10442;49.932;11.592;2022-10-29T00:41:14;16.40;76.40
20568;DHT22;10442;49.932;11.592;2022-10-29T00:46:44;16.40;76.20
20568;DHT22;10442;49.932;11.592;2022-10-29T00:49:14;16.30;75.80
20568;DHT22;10442;49.932;11.592;2022-10-29T00:51:43;16.30;75.70
20568;DHT22;10442;49.932;11.592;2022-10-29T00:54:13;16.20;75.60
20568;DHT22;10442;49.932;11.592;2022-10-29T00:56:49;16.20;75.80
20568;DHT22;10442;49.932;11.592;2022-10-29T00:59:19;16.10;75.90
20568;DHT22;10442;49.932;11.592;2022-10-29T01:01:47;16.10;76.00
20568;DHT22;10442;49.932;11.592;2022-10-29T01:04:16;16.10;76.10
20568;DHT22;10442;49.932;11.592;2022-10-29T01:06:45;16.00;76.20
20568;DHT22;10442;49.932;11.592;2022-10-29T01:09:13;15.90;76.30
20568;DHT22;10442;49.932;11.592;2022-10-29T01:14:29;15.90;76.60
20568;DHT22;10442;49.932;11.592;2022-10-29T01:20:11;15.80;77.00
20568;DHT22;10442;49.932;11.592;2022-10-29T01:23:00;15.80;77.20
20568;DHT22;10442;49.932;11.592;2022-10-29T01:34:04;15.80;78.00
20568;DHT22;10442;49.932;11.592;2022-10-29T01:39:27;15.90;78.40
20568;DHT22;10442;49.932;11.592;2022-10-29T01:42:05;15.90;78.50
20568;DHT22;10442;49.932;11.592;2022-10-29T01:44:44;15.90;78.30
20568;DHT22;10442;49.932;11.592;2022-10-29T01:47:17;16.00;78.20
20568;DHT22;10442;49.932;11.592;2022-10-29T01:49:52;16.00;78.10
20568;DHT22;10442;49.932;11.592;2022-10-29T01:52:22;16.00;78.10
20568;DHT22;10442;49.932;11.592;2022-10-29T01:54:50;16.00;78.00
20568;DHT22;10442;49.932;11.592;2022-10-29T01:57:32;16.00;77.80
20568;DHT22;10442;49.932;11.592;2022-10-29T02:00:12;16.00;78.00
20568;DHT22;10442;49.932;11.592;2022-10-29T02:11:45;16.00;77.70
20568;DHT22;10442;49.932;11.592;2022-10-29T02:14:27;16.00;77.80
20568;DHT22;10442;49.932;11.592;2022-10-29T02:16:57;16.00;77.80
20568;DHT22;10442;49.932;11.592;2022-10-29T02:19:32;16.00;77.60
20568;DHT22;10442;49.932;11.592;2022-10-29T02:22:00;16.00;77.70
20568;DHT22;10442;49.932;11.592;2022-10-29T02:24:27;16.00;77.60
20568;DHT22;10442;49.932;11.592;2022-10-29T02:26:54;16.00;77.50
20568;DHT22;10442;49.932;11.592;2022-10-29T02:29:22;15.90;77.50
20568;DHT22;10442;49.932;11.592;2022-10-29T02:31:50;15.90;77.50
20568;DHT22;10442;49.932;11.592;2022-10-29T02:34:17;15.90;77.30
20568;DHT22;10442;49.932;11.592;2022-10-29T02:36:45;15.90;77.30
20568;DHT22;10442;49.932;11.592;2022-10-29T02:39:12;15.90;77.30
20568;DHT22;10442;49.932;11.592;2022-10-29T02:41:39;15.80;77.20
20568;DHT22;10442;49.932;11.592;2022-10-29T02:44:07;15.80;77.40
20568;DHT22;10442;49.932;11.592;2022-10-29T02:46:34;15.80;77.40
20568;DHT22;10442;49.932;11.592;2022-10-29T02:49:06;15.70;77.40
20568;DHT22;10442;49.932;11.592;2022-10-29T02:51:33;15.60;77.40
20568;DHT22;10442;49.932;11.592;2022-10-29T02:54:00;15.70;77.50
20568;DHT22;10442;49.932;11.592;2022-10-29T02:56:28;15.60;77.60
20568;DHT22;10442;49.932;11.592;2022-10-29T02:58:55;15.60;77.60
20568;DHT22;10442;49.932;11.592;2022-10-29T03:01:22;15.50;77.70
20568;DHT22;10442;49.932;11.592;2022-10-29T03:03:50;15.50;77.80
20568;DHT22;10442;49.932;11.592;2022-10-29T03:06:18;15.50;77.60
20568;DHT22;10442;49.932;11.592;2022-10-29T03:08:46;15.50;77.70
20568;DHT22;10442;49.932;11.592;2022-10-29T03:11:13;15.50;77.60
20568;DHT22;10442;49.932;11.592;2022-10-29T03:13:41;15.40;77.40
20568;DHT22;10442;49.932;11.592;2022-10-29T03:16:09;15.40;77.50
20568;DHT22;10442;49.932;11.592;2022-10-29T03:18:37;15.30;77.30
20568;DHT22;10442;49.932;11.592;2022-10-29T03:21:04;15.30;77.30
20568;DHT22;10442;49.932;11.592;2022-10-29T03:23:32;15.20;77.30
20568;DHT22;10442;49.932;11.592;2022-10-29T03:25:59;15.20;77.30
20568;DHT22;10442;49.932;11.592;2022-10-29T03:28:28;15.20;77.30
20568;DHT22;10442;49.932;11.592;2022-10-29T03:30:57;15.00;77.20
20568;DHT22;10442;49.932;11.592;2022-10-29T03:33:25;15.00;77.20
20568;DHT22;10442;49.932;11.592;2022-10-29T03:36:02;14.90;77.40
20568;DHT22;10442;49.932;11.592;2022-10-29T03:38:31;14.90;77.50
20568;DHT22;10442;49.932;11.592;2022-10-29T03:40:58;14.80;77.50
20568;DHT22;10442;49.932;11.592;2022-10-29T03:43:26;14.80;77.60
20568;DHT22;10442;49.932;11.592;2022-10-29T03:45:56;14.70;77.70
20568;DHT22;10442;49.932;11.592;2022-10-29T03:48:24;14.70;77.90
20568;DHT22;10442;49.932;11.592;2022-10-29T03:50:59;14.60;77.80
20568;DHT22;10442;49.932;11.592;2022-10-29T03:53:28;14.60;77.90
20568;DHT22;10442;49.932;11.592;2022-10-29T03:55:56;14.60;77.90
20568;DHT22;10442;49.932;11.592;2022-10-29T03:58:24;14.50;77.90
20568;DHT22;10442;49.932;11.592;2022-10-29T04:00:57;14.50;77.80
20568;DHT22;10442;49.932;11.592;2022-10-29T04:03:26;14.50;77.90
20568;DHT22;10442;49.932;11.592;2022-10-29T04:05:54;14.40;77.70
20568;DHT22;10442;49.932;11.592;2022-10-29T04:08:22;14.40;77.70
20568;DHT22;10442;49.932;11.592;2022-10-29T04:10:50;14.40;77.70
20568;DHT22;10442;49.932;11.592;2022-10-29T04:13:18;14.30;77.90
20568;DHT22;10442;49.932;11.592;2022-10-29T04:15:46;14.30;77.90
20568;DHT22;10442;49.932;11.592;2022-10-29T04:18:13;14.20;77.90
20568;DHT22;10442;49.932;11.592;2022-10-29T04:20:41;14.20;78.00
20568;DHT22;10442;49.932;11.592;2022-10-29T04:23:28;14.20;78.00
20568;DHT22;10442;49.932;11.592;2022-10-29T04:26:16;14.10;78.00
20568;DHT22;10442;49.932;11.592;2022-10-29T04:29:04;14.10;78.10
20568;DHT22;10442;49.932;11.592;2022-10-29T04:31:31;14.10;78.10
20568;DHT22;10442;49.932;11.592;2022-10-29T04:33:59;14.00;78.10
20568;DHT22;10442;49.932;11.592;2022-10-29T04:36:26;14.00;78.10
20568;DHT22;10442;49.932;11.592;2022-10-29T04:38:54;13.90;78.20
20568;DHT22;10442;49.932;11.592;2022-10-29T04:41:21;13.90;78.30
20568;DHT22;10442;49.932;11.592;2022-10-29T04:43:48;13.90;78.30
20568;DHT22;10442;49.932;11.592;2022-10-29T04:46:15;13.80;78.20
20568;DHT22;10442;49.932;11.592;2022-10-29T04:48:43;13.80;78.30
20568;DHT22;10442;49.932;11.592;2022-10-29T04:51:23;13.80;78.30
20568;DHT22;10442;49.932;11.592;2022-10-29T04:53:51;13.80;78.60
20568;DHT22;10442;49.932;11.592;2022-10-29T04:56:18;13.70;78.40
20568;DHT22;10442;49.932;11.592;2022-10-29T04:58:48;13.70;78.40
20568;DHT22;10442;49.932;11.592;2022-10-29T05:01:16;13.70;78.40
20568;DHT22;10442;49.932;11.592;2022-10-29T05:03:44;13.70;78.50
20568;DHT22;10442;49.932;11.592;2022-10-29T05:06:11;13.70;78.50
20568;DHT22;10442;49.932;11.592;2022-10-29T05:08:38;13.70;78.40
20568;DHT22;10442;49.932;11.592;2022-10-29T05:11:06;13.60;78.20
20568;DHT22;10442;49.932;11.592;2022-10-29T05:13:34;13.60;78.30
20568;DHT22;10442;49.932;11.592;2022-10-29T05:16:02;13.60;78.30
20568;DHT22;10442;49.932;11.592;2022-10-29T05:18:29;13.50;78.20
20568;DHT22;10442;49.932;11.592;2022-10-29T05:20:57;13.50;78.30
20568;DHT22;10442;49.932;11.592;2022-10-29T05:23:24;13.50;78.30
20568;DHT22;10442;49.932;11.592;2022-10-29T05:25:54;13.40;78.40
20568;DHT22;10442;49.932;11.592;2022-10-29T05:28:22;13.40;78.50
20568;DHT22;10442;49.932;11.592;2022-10-29T05:30:51;13.40;78.60
20568;DHT22;10442;49.932;11.592;2022-10-29T05:33:21;13.40;78.60
20568;DHT22;10442;49.932;11.592;2022-10-29T05:35:50;13.40;78.70
20568;DHT22;10442;49.932;11.592;2022-10-29T05:38:17;13.40;78.80
20568;DHT22;10442;49.932;11.592;2022-10-29T05:40:45;13.40;78.90
20568;DHT22;10442;49.932;11.592;2022-10-29T05:43:15;13.40;78.90
20568;DHT22;10442;49.932;11.592;2022-10-29T05:45:43;13.40;79.00
20568;DHT22;10442;49.932;11.592;2022-10-29T05:48:11;13.40;79.10
20568;DHT22;10442;49.932;11.592;2022-10-29T05:50:44;13.40;79.20
20568;DHT22;10442;49.932;11.592;2022-10-29T05:53:13;13.40;79.30
20568;DHT22;10442;49.932;11.592;2022-10-29T05:55:41;13.40;79.30
20568;DHT22;10442;49.932;11.592;2022-10-29T05:58:11;13.40;79.30
20568;DHT22;10442;49.932;11.592;2022-10-29T06:00:41;13.50;79.30
20568;DHT22;10442;49.932;11.592;2022-10-29T06:03:14;13.50;79.30
20568;DHT22;10442;49.932;11.592;2022-10-29T06:05:43;13.50;79.30
20568;DHT22;10442;49.932;11.592;2022-10-29T06:08:12;13.50;79.20
20568;DHT22;10442;49.932;11.592;2022-10-29T06:10:40;13.50;79.00
20568;DHT22;10442;49.932;11.592;2022-10-29T06:13:16;13.50;79.00
20568;DHT22;10442;49.932;11.592;2022-10-29T06:15:45;13.50;79.10
20568;DHT22;10442;49.932;11.592;2022-10-29T06:18:13;13.50;79.00
20568;DHT22;10442;49.932;11.592;2022-10-29T06:20:41;13.50;79.90
20568;DHT22;10442;49.932;11.592;2022-10-29T06:23:12;13.50;79.10
20568;DHT22;10442;49.932;11.592;2022-10-29T06:25:39;13.50;79.10
20568;DHT22;10442;49.932;11.592;2022-10-29T06:28:09;13.50;79.10
20568;DHT22;10442;49.932;11.592;2022-10-29T06:30:38;13.50;79.20
20568;DHT22;10442;49.932;11.592;2022-10-29T06:33:06;13.60;79.40
20568;DHT22;10442;49.932;11.592;2022-10-29T06:35:34;13.60;79.60
20568;DHT22;10442;49.932;11.592;2022-10-29T06:38:06;13.60;79.60
20568;DHT22;10442;49.932;11.592;2022-10-29T06:40:39;13.70;79.70
20568;DHT22;10442;49.932;11.592;2022-10-29T06:43:09;13.80;80.50
20568;DHT22;10442;49.932;11.592;2022-10-29T06:45:37;13.80;79.50
20568;DHT22;10442;49.932;11.592;2022-10-29T06:48:05;13.90;79.50
20568;DHT22;10442;49.932;11.592;2022-10-29T06:50:33;14.00;79.60
20568;DHT22;10442;49.932;11.592;2022-10-29T06:53:02;14.10;79.50
20568;DHT22;10442;49.932;11.592;2022-10-29T06:55:32;14.10;79.50
20568;DHT22;10442;49.932;11.592;2022-10-29T06:58:05;14.20;79.70
20568;DHT22;10442;49.932;11.592;2022-10-29T07:00:33;14.40;80.20
20568;DHT22;10442;49.932;11.592;2022-10-29T07:03:01;14.50;80.60
20568;DHT22;10442;49.932;11.592;2022-10-29T07:05:31;14.70;81.20
20568;DHT22;10442;49.932;11.592;2022-10-29T07:08:00;14.90;81.60
20568;DHT22;10442;49.932;11.592;2022-10-29T07:10:30;15.30;81.90
20568;DHT22;10442;49.932;11.592;2022-10-29T07:12:59;15.60;81.60
20568;DHT22;10442;49.932;11.592;2022-10-29T07:15:27;16.00;80.80
20568;DHT22;10442;49.932;11.592;2022-10-29T07:20:27;16.70;78.80
20568;DHT22;10442;49.932;11.592;2022-10-29T07:22:55;17.00;78.30
20568;DHT22;10442;49.932;11.592;2022-10-29T07:25:23;17.30;77.50
20568;DHT22;10442;49.932;11.592;2022-10-29T07:27:53;17.60;77.20
20568;DHT22;10442;49.932;11.592;2022-10-29T07:30:21;17.90;77.50
20568;DHT22;10442;49.932;11.592;2022-10-29T07:32:48;18.20;77.30
20568;DHT22;10442;49.932;11.592;2022-10-29T07:35:16;18.60;76.50
20568;DHT22;10442;49.932;11.592;2022-10-29T07:37:43;18.90;75.70
20568;DHT22;10442;49.932;11.592;2022-10-29T07:40:11;19.40;75.20
20568;DHT22;10442;49.932;11.592;2022-10-29T07:42:39;19.80;73.80
20568;DHT22;10442;49.932;11.592;2022-10-29T07:45:07;20.20;72.00
20568;DHT22;10442;49.932;11.592;2022-10-29T07:47:34;20.60;71.00
20568;DHT22;10442;49.932;11.592;2022-10-29T07:50:02;20.90;69.70
20568;DHT22;10442;49.932;11.592;2022-10-29T07:52:29;21.10;68.10
20568;DHT22;10442;49.932;11.592;2022-10-29T07:54:57;21.30;67.60
20568;DHT22;10442;49.932;11.592;2022-10-29T07:57:26;21.30;66.90
20568;DHT22;10442;49.932;11.592;2022-10-29T07:59:54;21.40;66.60
20568;DHT22;10442;49.932;11.592;2022-10-29T08:02:21;21.40;66.10
20568;DHT22;10442;49.932;11.592;2022-10-29T08:04:48;21.50;65.60
20568;DHT22;10442;49.932;11.592;2022-10-29T08:07:16;21.50;64.70
20568;DHT22;10442;49.932;11.592;2022-10-29T08:09:43;21.50;64.40
20568;DHT22;10442;49.932;11.592;2022-10-29T08:12:11;21.50;64.60
20568;DHT22;10442;49.932;11.592;2022-10-29T08:14:38;21.60;64.50
20568;DHT22;10442;49.932;11.592;2022-10-29T08:17:05;21.60;64.10
20568;DHT22;10442;49.932;11.592;2022-10-29T08:19:33;21.80;63.90
20568;DHT22;10442;49.932;11.592;2022-10-29T08:22:00;21.80;63.90
20568;DHT22;10442;49.932;11.592;2022-10-29T08:24:28;21.90;63.80
20568;DHT22;10442;49.932;11.592;2022-10-29T08:26:55;21.90;62.60
20568;DHT22;10442;49.932;11.592;2022-10-29T08:29:22;21.80;62.00
20568;DHT22;10442;49.932;11.592;2022-10-29T08:31:50;21.70;61.80
20568;DHT22;10442;49.932;11.592;2022-10-29T08:34:17;21.60;62.00
20568;DHT22;10442;49.932;11.592;2022-10-29T08:36:44;21.40;62.40
20568;DHT22;10442;49.932;11.592;2022-10-29T08:39:12;21.20;63.10
20568;DHT22;10442;49.932;11.592;2022-10-29T08:42:06;21.10;63.20
20568;DHT22;10442;49.932;11.592;2022-10-29T08:48:07;20.90;64.20
20568;DHT22;10442;49.932;11.592;2022-10-29T08:50:41;20.80;64.50
20568;DHT22;10442;49.932;11.592;2022-10-29T08:53:20;20.70;64.50
20568;DHT22;10442;49.932;11.592;2022-10-29T08:55:51;20.60;64.70
20568;DHT22;10442;49.932;11.592;2022-10-29T08:58:35;20.50;65.00
20568;DHT22;10442;49.932;11.592;2022-10-29T09:01:10;20.40;65.50
20568;DHT22;10442;49.932;11.592;2022-10-29T09:03:38;20.30;65.70
20568;DHT22;10442;49.932;11.592;2022-10-29T09:06:12;20.30;66.20
20568;DHT22;10442;49.932;11.592;2022-10-29T09:17:25;20.30;65.80
20568;DHT22;10442;49.932;11.592;2022-10-29T09:20:27;20.30;66.10
20568;DHT22;10442;49.932;11.592;2022-10-29T09:26:10;20.20;66.40
20568;DHT22;10442;49.932;11.592;2022-10-29T09:29:13;20.10;66.10
20568;DHT22;10442;49.932;11.592;2022-10-29T09:31:51;20.10;66.50
20568;DHT22;10442;49.932;11.592;2022-10-29T09:34:33;20.10;66.30
20568;DHT22;10442;49.932;11.592;2022-10-29T09:37:15;20.00;66.50
20568;DHT22;10442;49.932;11.592;2022-10-29T09:39:45;20.00;66.70
20568;DHT22;10442;49.932;11.592;2022-10-29T09:42:17;20.00;66.80
20568;DHT22;10442;49.932;11.592;2022-10-29T09:44:51;19.90;66.70
20568;DHT22;10442;49.932;11.592;2022-10-29T09:47:41;19.90;67.20
20568;DHT22;10442;49.932;11.592;2022-10-29T09:50:28;19.90;67.30
20568;DHT22;10442;49.932;11.592;2022-10-29T09:52:59;19.90;66.80
20568;DHT22;10442;49.932;11.592;2022-10-29T09:55:32;19.90;67.50
20568;DHT22;10442;49.932;11.592;2022-10-29T09:58:04;19.90;67.60
20568;DHT22;10442;49.932;11.592;2022-10-29T10:00:33;19.90;67.70
20568;DHT22;10442;49.932;11.592;2022-10-29T10:03:18;19.90;67.60
20568;DHT22;10442;49.932;11.592;2022-10-29T10:06:00;19.90;67.70
20568;DHT22;10442;49.932;11.592;2022-10-29T10:08:29;19.90;67.70
20568;DHT22;10442;49.932;11.592;2022-10-29T10:11:02;20.00;68.10
20568;DHT22;10442;49.932;11.592;2022-10-29T10:13:36;20.10;68.20
20568;DHT22;10442;49.932;11.592;2022-10-29T10:16:22;20.20;68.30
20568;DHT22;10442;49.932;11.592;2022-10-29T10:18:50;20.30;68.10
20568;DHT22;10442;49.932;11.592;2022-10-29T10:21:28;20.40;67.80
20568;DHT22;10442;49.932;11.592;2022-10-29T10:23:57;20.40;67.40
20568;DHT22;10442;49.932;11.592;2022-10-29T10:26:40;20.50;67.20
20568;DHT22;10442;49.932;11.592;2022-10-29T10:42:16;20.70;67.10
20568;DHT22;10442;49.932;11.592;2022-10-29T10:44:53;20.70;66.70
20568;DHT22;10442;49.932;11.592;2022-10-29T10:47:25;20.70;66.70
20568;DHT22;10442;49.932;11.592;2022-10-29T10:50:11;20.80;66.60
20568;DHT22;10442;49.932;11.592;2022-10-29T10:52:40;20.70;66.70
20568;DHT22;10442;49.932;11.592;2022-10-29T11:01:05;20.80;66.90
20568;DHT22;10442;49.932;11.592;2022-10-29T11:03:45;20.80;67.10
20568;DHT22;10442;49.932;11.592;2022-10-29T11:06:24;20.80;67.20
20568;DHT22;10442;49.932;11.592;2022-10-29T11:11:34;20.90;67.00
20568;DHT22;10442;49.932;11.592;2022-10-29T11:14:12;20.90;66.90
20568;DHT22;10442;49.932;11.592;2022-10-29T11:16:49;20.90;67.10
20568;DHT22;10442;49.932;11.592;2022-10-29T11:24:50;21.00;66.90
20568;DHT22;10442;49.932;11.592;2022-10-29T11:27:26;21.00;67.10
20568;DHT22;10442;49.932;11.592;2022-10-29T11:30:05;21.10;66.80
20568;DHT22;10442;49.932;11.592;2022-10-29T11:36:05;21.20;66.80
20568;DHT22;10442;49.932;11.592;2022-10-29T11:38:43;21.20;67.00
20568;DHT22;10442;49.932;11.592;2022-10-29T11:43:48;21.20;66.70
20568;DHT22;10442;49.932;11.592;2022-10-29T11:46:32;21.20;66.70
20568;DHT22;10442;49.932;11.592;2022-10-29T11:49:29;21.20;66.70
20568;DHT22;10442;49.932;11.592;2022-10-29T11:52:11;21.20;66.40
20568;DHT22;10442;49.932;11.592;2022-10-29T11:57:38;21.30;66.60
20568;DHT22;10442;49.932;11.592;2022-10-29T12:00:20;21.30;66.60
20568;DHT22;10442;49.932;11.592;2022-10-29T12:05:46;21.40;66.70
20568;DHT22;10442;49.932;11.592;2022-10-29T12:08:28;21.40;66.60
20568;DHT22;10442;49.932;11.592;2022-10-29T12:17:14;21.60;66.30
20568;DHT22;10442;49.932;11.592;2022-10-29T12:23:02;21.70;66.20
20568;DHT22;10442;49.932;11.592;2022-10-29T12:25:44;21.70;66.20
20568;DHT22;10442;49.932;11.592;2022-10-29T12:39:38;21.90;66.00
20568;DHT22;10442;49.932;11.592;2022-10-29T12:42:20;22.00;66.00
20568;DHT22;10442;49.932;11.592;2022-10-29T12:45:15;22.10;65.90
20568;DHT22;10442;49.932;11.592;2022-10-29T12:47:54;22.10;66.40
20568;DHT22;10442;49.932;11.592;2022-10-29T12:50:42;22.20;66.00
20568;DHT22;10442;49.932;11.592;2022-10-29T12:56:03;22.40;66.00
20568;DHT22;10442;49.932;11.592;2022-10-29T13:04:32;22.50;65.50
20568;DHT22;10442;49.932;11.592;2022-10-29T13:18:17;22.70;65.30
20568;DHT22;10442;49.932;11.592;2022-10-29T13:20:50;22.70;65.10
20568;DHT22;10442;49.932;11.592;2022-10-29T13:25:50;22.70;65.00
20568;DHT22;10442;49.932;11.592;2022-10-29T13:30:47;22.70;65.10
20568;DHT22;10442;49.932;11.592;2022-10-29T13:36:34;22.70;64.90
20568;DHT22;10442;49.932;11.592;2022-10-29T13:41:42;22.60;65.00
20568;DHT22;10442;49.932;11.592;2022-10-29T13:44:23;22.50;65.00
20568;DHT22;10442;49.932;11.592;2022-10-29T13:47:00;22.50;65.00
20568;DHT22;10442;49.932;11.592;2022-10-29T13:49:31;22.50;65.40
20568;DHT22;10442;49.932;11.592;2022-10-29T13:59:49;22.30;65.30
20568;DHT22;10442;49.932;11.592;2022-10-29T14:07:53;22.20;65.90
20568;DHT22;10442;49.932;11.592;2022-10-29T14:13:26;22.20;66.00
20568;DHT22;10442;49.932;11.592;2022-10-29T14:24:06;22.10;66.50
20568;DHT22;10442;49.932;11.592;2022-10-29T14:26:39;22.10;66.60
20568;DHT22;10442;49.932;11.592;2022-10-29T14:29:18;22.00;66.50
20568;DHT22;10442;49.932;11.592;2022-10-29T14:34:34;22.00;66.80
20568;DHT22;10442;49.932;11.592;2022-10-29T14:37:10;21.90;66.90
20568;DHT22;10442;49.932;11.592;2022-10-29T14:39:43;21.90;67.20
20568;DHT22;10442;49.932;11.592;2022-10-29T14:42:36;21.90;67.20
20568;DHT22;10442;49.932;11.592;2022-10-29T14:45:07;21.80;67.20
20568;DHT22;10442;49.932;11.592;2022-10-29T14:47:46;21.80;67.30
20568;DHT22;10442;49.932;11.592;2022-10-29T14:50:17;21.70;67.20
20568;DHT22;10442;49.932;11.592;2022-10-29T14:52:52;21.70;67.40
20568;DHT22;10442;49.932;11.592;2022-10-29T14:55:25;21.60;67.50
20568;DHT22;10442;49.932;11.592;2022-10-29T14:57:59;21.60;67.60
20568;DHT22;10442;49.932;11.592;2022-10-29T15:00:30;21.60;67.70
20568;DHT22;10442;49.932;11.592;2022-10-29T15:02:59;21.50;67.70
20568;DHT22;10442;49.932;11.592;2022-10-29T15:05:32;21.50;67.70
20568;DHT22;10442;49.932;11.592;2022-10-29T15:08:05;21.50;67.90
20568;DHT22;10442;49.932;11.592;2022-10-29T15:10:46;21.40;67.90
20568;DHT22;10442;49.932;11.592;2022-10-29T15:13:31;21.40;67.90
20568;DHT22;10442;49.932;11.592;2022-10-29T15:16:17;21.40;68.10
20568;DHT22;10442;49.932;11.592;2022-10-29T15:18:49;21.40;68.10
20568;DHT22;10442;49.932;11.592;2022-10-29T15:21:25;21.30;68.00
20568;DHT22;10442;49.932;11.592;2022-10-29T15:23:57;21.30;68.10
20568;DHT22;10442;49.932;11.592;2022-10-29T15:26:26;21.30;68.00
20568;DHT22;10442;49.932;11.592;2022-10-29T15:28:54;21.20;68.00
20568;DHT22;10442;49.932;11.592;2022-10-29T15:31:42;21.20;68.10
20568;DHT22;10442;49.932;11.592;2022-10-29T15:34:17;21.20;68.30
20568;DHT22;10442;49.932;11.592;2022-10-29T15:36:51;21.10;68.50
20568;DHT22;10442;49.932;11.592;2022-10-29T15:39:21;21.10;68.50
20568;DHT22;10442;49.932;11.592;2022-10-29T15:41:49;21.00;68.40
20568;DHT22;10442;49.932;11.592;2022-10-29T15:44:37;21.00;68.40
20568;DHT22;10442;49.932;11.592;2022-10-29T15:47:27;20.90;68.60
20568;DHT22;10442;49.932;11.592;2022-10-29T15:49:54;20.90;68.60
20568;DHT22;10442;49.932;11.592;2022-10-29T15:52:27;20.90;68.50
20568;DHT22;10442;49.932;11.592;2022-10-29T15:54:58;20.90;68.60
20568;DHT22;10442;49.932;11.592;2022-10-29T15:57:26;20.80;68.50
20568;DHT22;10442;49.932;11.592;2022-10-29T15:59:54;20.80;68.50
20568;DHT22;10442;49.932;11.592;2022-10-29T16:02:24;20.70;68.50
20568;DHT22;10442;49.932;11.592;2022-10-29T16:04:52;20.70;68.50
20568;DHT22;10442;49.932;11.592;2022-10-29T16:07:19;20.60;68.60
20568;DHT22;10442;49.932;11.592;2022-10-29T16:09:50;20.50;68.80
20568;DHT22;10442;49.932;11.592;2022-10-29T16:12:18;20.40;69.00
20568;DHT22;10442;49.932;11.592;2022-10-29T16:14:46;20.40;69.20
20568;DHT22;10442;49.932;11.592;2022-10-29T16:17:15;20.30;69.50
20568;DHT22;10442;49.932;11.592;2022-10-29T16:19:43;20.20;69.60
20568;DHT22;10442;49.932;11.592;2022-10-29T16:22:16;20.10;69.80
20568;DHT22;10442;49.932;11.592;2022-10-29T16:24:46;20.00;70.30
20568;DHT22;10442;49.932;11.592;2022-10-29T16:27:15;19.90;70.20
20568;DHT22;10442;49.932;11.592;2022-10-29T16:29:43;19.80;70.30
20568;DHT22;10442;49.932;11.592;2022-10-29T16:32:20;19.80;70.50
20568;DHT22;10442;49.932;11.592;2022-10-29T16:34:49;19.70;70.80
20568;DHT22;10442;49.932;11.592;2022-10-29T16:37:18;19.60;70.70
20568;DHT22;10442;49.932;11.592;2022-10-29T16:39:45;19.60;71.00
20568;DHT22;10442;49.932;11.592;2022-10-29T16:42:29;19.60;71.20
20568;DHT22;10442;49.932;11.592;2022-10-29T16:44:57;19.50;71.40
20568;DHT22;10442;49.932;11.592;2022-10-29T16:47:25;19.50;71.20
20568;DHT22;10442;49.932;11.592;2022-10-29T16:49:52;19.40;71.30
20568;DHT22;10442;49.932;11.592;2022-10-29T16:52:20;19.40;71.30
20568;DHT22;10442;49.932;11.592;2022-10-29T16:54:52;19.30;71.40
20568;DHT22;10442;49.932;11.592;2022-10-29T16:57:19;19.20;71.50
20568;DHT22;10442;49.932;11.592;2022-10-29T16:59:47;19.20;71.60
20568;DHT22;10442;49.932;11.592;2022-10-29T17:02:14;19.10;71.60
20568;DHT22;10442;49.932;11.592;2022-10-29T17:04:42;19.10;71.60
20568;DHT22;10442;49.932;11.592;2022-10-29T17:07:10;19.00;71.70
20568;DHT22;10442;49.932;11.592;2022-10-29T17:09:37;19.00;71.80
20568;DHT22;10442;49.932;11.592;2022-10-29T17:12:06;18.90;71.80
20568;DHT22;10442;49.932;11.592;2022-10-29T17:14:33;18.90;72.10
20568;DHT22;10442;49.932;11.592;2022-10-29T17:17:01;18.90;72.30
20568;DHT22;10442;49.932;11.592;2022-10-29T17:19:28;18.80;72.40
20568;DHT22;10442;49.932;11.592;2022-10-29T17:21:55;18.70;72.40
20568;DHT22;10442;49.932;11.592;2022-10-29T17:24:25;18.70;72.70
20568;DHT22;10442;49.932;11.592;2022-10-29T17:26:53;18.60;72.80
20568;DHT22;10442;49.932;11.592;2022-10-29T17:29:20;18.60;73.60
20568;DHT22;10442;49.932;11.592;2022-10-29T17:31:48;18.60;73.00
20568;DHT22;10442;49.932;11.592;2022-10-29T17:34:16;18.50;73.20
20568;DHT22;10442;49.932;11.592;2022-10-29T17:36:43;18.50;73.50
20568;DHT22;10442;49.932;11.592;2022-10-29T17:39:11;18.50;73.50
20568;DHT22;10442;49.932;11.592;2022-10-29T17:41:38;18.50;73.60
20568;DHT22;10442;49.932;11.592;2022-10-29T17:44:05;18.50;73.60
20568;DHT22;10442;49.932;11.592;2022-10-29T17:46:33;18.40;73.70
20568;DHT22;10442;49.932;11.592;2022-10-29T17:49:00;18.40;73.80
20568;DHT22;10442;49.932;11.592;2022-10-29T17:51:28;18.40;73.90
20568;DHT22;10442;49.932;11.592;2022-10-29T17:53:55;18.40;74.10
20568;DHT22;10442;49.932;11.592;2022-10-29T17:56:23;18.40;74.10
20568;DHT22;10442;49.932;11.592;2022-10-29T17:58:50;18.40;74.00
20568;DHT22;10442;49.932;11.592;2022-10-29T18:01:18;18.40;74.00
20568;DHT22;10442;49.932;11.592;2022-10-29T18:03:45;18.40;74.20
20568;DHT22;10442;49.932;11.592;2022-10-29T18:06:13;18.30;74.10
20568;DHT22;10442;49.932;11.592;2022-10-29T18:08:42;18.30;74.40
20568;DHT22;10442;49.932;11.592;2022-10-29T18:11:15;18.30;74.50
20568;DHT22;10442;49.932;11.592;2022-10-29T18:13:44;18.30;74.50
20568;DHT22;10442;49.932;11.592;2022-10-29T18:16:14;18.30;74.50
20568;DHT22;10442;49.932;11.592;2022-10-29T18:18:45;18.20;74.70
20568;DHT22;10442;49.932;11.592;2022-10-29T18:21:28;18.20;74.80
20568;DHT22;10442;49.932;11.592;2022-10-29T18:23:56;18.20;74.70
20568;DHT22;10442;49.932;11.592;2022-10-29T18:26:34;18.20;74.80